Terminal Aerodrome Forecast
Issued by NWS

Home | Current Version | Previous Version | Text Only | Print | Product List | Glossary On
Versions: 1 2 3 4 5 6 7 8 9 10 11 12 13 14 15 16 17 18 19 20 21 22
000
FTUS45 KBOI 300520
TAFBKE
TAF
KBKE 300520Z 3006/3106 30010KT P6SM SCT100
     FM300900 VRB06KT P6SM SCT100
     FM301800 31010KT P6SM VCSH FEW080 BKN100
     FM310100 31008KT P6SM FEW250=

USA.gov is the U.S. government's official web portal to all federal, state and local government web resources and services.